Time;durP1;ratioP1;P1;durP2;ratioP2;P2;SDS_P1;SDS_P2;PMS_P1;PMS_P2;Temp;Humidity;BMP_temperature;BMP_pressure;BME280_temperature;BME280_humidity;BME280_pressure;Samples;Min_cycle;Max_cycle;Signal;HPM_P1;HPM_P2
2022/11/10 00:01:06;;;;;;;107.23;39.90;;;6.60;99.90;;;;;;4407694;28;660557;-63
2022/11/10 00:03:54;;;;;;;111.40;39.13;;;6.60;99.90;;;;;;4389682;28;660889;-63
2022/11/10 00:06:41;;;;;;;100.23;39.00;;;6.60;99.90;;;;;;4393527;28;659965;-63
2022/11/10 00:09:29;;;;;;;105.93;37.00;;;6.60;99.90;;;;;;4412365;28;661184;-63
2022/11/10 00:12:17;;;;;;;99.27;38.03;;;6.60;99.90;;;;;;4393756;28;661249;-63
2022/11/10 00:18:09;;;;;;;99.30;36.20;;;6.60;99.90;;;;;;4394501;28;659275;-63
2022/11/10 00:21:03;;;;;;;106.53;36.33;;;6.60;99.90;;;;;;4395082;28;658440;-63
2022/11/10 00:23:50;;;;;;;99.03;35.40;;;6.60;99.90;;;;;;4370955;28;660548;-65
2022/11/10 00:26:38;;;;;;;88.30;33.42;;;6.50;99.90;;;;;;4417827;28;659155;-63
2022/11/10 00:29:26;;;;;;;102.93;35.80;;;6.40;99.90;;;;;;4394853;28;659305;-63
2022/11/10 00:32:13;;;;;;;86.20;32.20;;;6.50;99.90;;;;;;4412596;28;661240;-63
2022/11/10 00:35:00;;;;;;;82.33;32.07;;;6.50;99.90;;;;;;4405126;28;658622;-65
2022/11/10 00:37:49;;;;;;;88.70;32.88;;;6.30;99.90;;;;;;4417520;28;658653;-63
2022/11/10 00:40:36;;;;;;;85.45;33.10;;;6.30;99.90;;;;;;4394505;28;658474;-63
2022/11/10 00:43:24;;;;;;;94.00;34.17;;;6.30;99.90;;;;;;4413958;28;659794;-63
2022/11/10 00:46:12;;;;;;;88.43;32.87;;;6.40;99.90;;;;;;4395528;28;660308;-63
2022/11/10 00:48:59;;;;;;;85.07;31.77;;;6.30;99.90;;;;;;4414318;28;659391;-63
2022/11/10 00:51:46;;;;;;;84.63;33.17;;;6.30;99.90;;;;;;4394921;28;659732;-65
2022/11/10 00:54:33;;;;;;;82.40;30.60;;;6.30;99.90;;;;;;4414889;28;658932;-63
2022/11/10 00:57:20;;;;;;;81.07;30.40;;;6.30;99.90;;;;;;4399922;28;658677;-65
2022/11/10 01:00:10;;;;;;;87.65;32.60;;;6.40;99.90;;;;;;4417937;28;660510;-63
2022/11/10 01:02:57;;;;;;;80.00;30.90;;;6.40;99.90;;;;;;4390914;28;661157;-63
2022/11/10 01:05:44;;;;;;;80.93;31.70;;;6.30;99.90;;;;;;4412663;28;658858;-63
2022/11/10 01:08:31;;;;;;;81.13;31.13;;;6.30;99.90;;;;;;4394740;28;658774;-63
2022/11/10 01:11:20;;;;;;;73.70;30.07;;;6.10;99.90;;;;;;4413879;28;659899;-63
2022/11/10 01:14:07;;;;;;;70.17;28.33;;;6.00;99.90;;;;;;4389547;28;660368;-64
2022/11/10 01:16:55;;;;;;;78.20;28.47;;;6.00;99.90;;;;;;4413818;28;659702;-63
2022/11/10 01:19:42;;;;;;;72.55;29.63;;;6.00;99.90;;;;;;4394677;28;659633;-64
2022/11/10 01:22:30;;;;;;;77.00;30.67;;;6.00;99.90;;;;;;4413566;28;659024;-64
2022/11/10 01:25:17;;;;;;;77.30;29.87;;;5.80;99.90;;;;;;4390615;28;661146;-63
2022/11/10 01:28:04;;;;;;;79.30;30.30;;;6.00;99.90;;;;;;4412162;28;658689;-63
2022/11/10 01:30:57;;;;;;;79.75;30.30;;;6.10;99.90;;;;;;4394592;28;659012;-64
2022/11/10 01:33:45;;;;;;;81.93;30.23;;;6.00;99.90;;;;;;4390406;28;659303;-63
2022/11/10 01:36:32;;;;;;;90.53;31.73;;;6.00;99.90;;;;;;4392907;28;659342;-63
2022/11/10 01:39:19;;;;;;;77.03;30.03;;;6.10;99.90;;;;;;4413245;28;659534;-64
2022/11/10 01:42:06;;;;;;;85.10;32.43;;;5.90;99.90;;;;;;4394066;28;658533;-64
2022/11/10 01:45:35;;;;;;;94.53;33.57;;;6.00;99.90;;;;;;4413128;28;659141;-64
2022/11/10 01:48:27;;;;;;;90.93;32.53;;;6.20;99.90;;;;;;4363453;28;660040;-63
2022/11/10 01:51:20;;;;;;;83.03;31.13;;;6.30;99.90;;;;;;4386279;28;658474;-65
2022/11/10 01:54:11;;;;;;;84.97;31.30;;;6.20;99.90;;;;;;4389329;28;659675;-64
2022/11/10 01:57:00;;;;;;;86.73;32.87;;;6.20;99.90;;;;;;4389087;28;659741;-64
2022/11/10 01:59:47;;;;;;;84.60;32.13;;;6.20;99.90;;;;;;4394041;28;659831;-63
2022/11/10 02:02:36;;;;;;;84.00;30.93;;;6.20;99.90;;;;;;4412309;28;658697;-63
2022/11/10 02:05:23;;;;;;;88.50;31.40;;;6.30;99.90;;;;;;4390114;28;660211;-64
2022/11/10 02:08:12;;;;;;;89.37;32.80;;;6.40;99.90;;;;;;4394009;28;658862;-64
2022/11/10 02:10:59;;;;;;;96.60;33.83;;;6.50;99.90;;;;;;4412763;28;658299;-63
2022/11/10 02:13:46;;;;;;;95.17;34.10;;;6.60;99.90;;;;;;4394318;28;658534;-64
2022/11/10 02:16:33;;;;;;;84.37;28.90;;;6.50;99.90;;;;;;4412882;28;659349;-63
2022/11/10 02:19:21;;;;;;;100.13;34.30;;;6.60;99.90;;;;;;4393971;28;659492;-64
2022/11/10 02:22:10;;;;;;;99.40;34.00;;;6.50;99.90;;;;;;4412434;28;660321;-64
2022/11/10 02:24:57;;;;;;;105.03;36.17;;;6.50;99.90;;;;;;4389776;28;659818;-64
2022/11/10 02:27:44;;;;;;;96.77;34.20;;;6.50;99.90;;;;;;4411371;28;659611;-64
2022/11/10 02:30:31;;;;;;;103.53;34.57;;;6.40;99.90;;;;;;4394049;28;659100;-64
2022/11/10 02:33:18;;;;;;;103.75;35.08;;;6.50;99.90;;;;;;4411537;28;661273;-64
2022/11/10 02:36:05;;;;;;;97.97;33.57;;;6.50;99.90;;;;;;4392711;28;659945;-65
2022/11/10 02:38:54;;;;;;;99.07;34.23;;;6.50;99.90;;;;;;4412903;28;660161;-64
2022/11/10 02:41:41;;;;;;;96.23;33.13;;;6.60;99.90;;;;;;4393162;28;658590;-64
2022/11/10 02:44:28;;;;;;;98.00;34.00;;;6.60;99.90;;;;;;4411501;28;659983;-64
2022/11/10 02:47:15;;;;;;;99.50;33.45;;;6.60;99.90;;;;;;4392502;28;659223;-65
2022/11/10 02:50:02;;;;;;;95.82;34.33;;;6.60;99.90;;;;;;4415516;28;658677;-63
2022/11/10 02:52:49;;;;;;;103.97;35.27;;;6.60;99.90;;;;;;4411582;28;658402;-64
2022/11/10 02:55:38;;;;;;;96.53;34.67;;;6.50;99.90;;;;;;4387483;28;660819;-64
2022/11/10 02:58:25;;;;;;;87.50;32.22;;;6.50;99.90;;;;;;4387025;28;658815;-66
2022/11/10 03:01:12;;;;;;;93.27;32.90;;;6.40;99.90;;;;;;4400359;28;659531;-64
2022/11/10 03:03:59;;;;;;;88.07;32.80;;;6.40;99.90;;;;;;4395939;28;658733;-64
2022/11/10 03:06:46;;;;;;;88.63;32.07;;;6.40;99.90;;;;;;4373235;28;658477;-64
2022/11/10 03:09:34;;;;;;;86.97;33.63;;;6.40;99.90;;;;;;4396006;28;659165;-64
2022/11/10 03:12:22;;;;;;;81.23;31.30;;;6.40;99.90;;;;;;4377338;28;660210;-64
2022/11/10 03:15:11;;;;;;;85.90;30.95;;;6.30;99.90;;;;;;4398199;28;658614;-64
2022/11/10 03:18:02;;;;;;;92.33;32.93;;;6.30;99.90;;;;;;4376314;28;659341;-64
2022/11/10 03:20:49;;;;;;;100.60;33.40;;;6.40;99.90;;;;;;4376359;28;658328;-64
2022/11/10 03:23:36;;;;;;;101.13;35.10;;;6.50;99.90;;;;;;4379276;28;659828;-64
2022/11/10 03:26:24;;;;;;;100.87;36.10;;;6.60;99.90;;;;;;4398024;28;659682;-64
2022/11/10 03:29:12;;;;;;;101.03;34.63;;;6.60;99.90;;;;;;4378773;28;659659;-64
2022/11/10 03:31:59;;;;;;;80.18;30.20;;;6.70;99.90;;;;;;4397549;28;659300;-63
2022/11/10 03:34:46;;;;;;;99.65;33.60;;;6.80;99.90;;;;;;4380120;28;659106;-64
2022/11/10 03:37:33;;;;;;;89.90;34.00;;;6.80;99.90;;;;;;4398758;28;658971;-64
2022/11/10 03:40:20;;;;;;;87.83;33.10;;;6.90;99.90;;;;;;4380004;28;659661;-65
2022/11/10 03:43:08;;;;;;;99.20;35.83;;;6.80;99.90;;;;;;4392600;28;660301;-64
2022/11/10 03:45:56;;;;;;;95.53;32.83;;;6.90;99.90;;;;;;4382441;28;658596;-66
2022/11/10 03:48:44;;;;;;;110.27;34.67;;;6.90;99.90;;;;;;4397032;28;659378;-64
2022/11/10 03:51:31;;;;;;;91.57;32.50;;;6.90;99.90;;;;;;4375606;28;659423;-64
2022/11/10 03:54:18;;;;;;;92.90;32.60;;;6.90;99.90;;;;;;4396500;28;660369;-64
2022/11/10 03:57:05;;;;;;;88.80;31.77;;;6.90;99.90;;;;;;4380021;28;658716;-65
2022/11/10 03:59:52;;;;;;;97.00;34.80;;;7.00;99.90;;;;;;4400973;28;658518;-64
2022/11/10 04:02:41;;;;;;;107.70;35.93;;;7.00;99.90;;;;;;4397115;28;658854;-64
2022/11/10 04:17:48;;;;;;;84.10;29.00;;;7.10;99.90;;;;;;4351443;28;659820;-64
2022/11/10 04:20:35;;;;;;;91.37;33.30;;;7.20;99.90;;;;;;4354891;28;658375;-64
2022/11/10 04:23:33;;;;;;;77.90;29.27;;;7.30;99.90;;;;;;4397094;28;660076;-64
2022/11/10 04:26:29;;;;;;;79.72;30.25;;;7.30;99.90;;;;;;4354709;28;658919;-66
2022/11/10 04:29:17;;;;;;;80.97;30.50;;;7.30;99.90;;;;;;4377962;28;659427;-64
2022/11/10 04:32:04;;;;;;;75.63;30.10;;;7.30;99.90;;;;;;4396353;28;659269;-64
2022/11/10 04:34:53;;;;;;;75.27;29.40;;;7.30;99.90;;;;;;4378021;28;659357;-64
2022/11/10 04:37:40;;;;;;;86.37;31.57;;;7.30;99.90;;;;;;4379932;28;658906;-66
2022/11/10 04:40:27;;;;;;;78.22;31.50;;;7.30;99.90;;;;;;4400802;28;658800;-64
2022/11/10 04:43:14;;;;;;;75.57;29.13;;;7.40;99.90;;;;;;4396642;28;659808;-64
2022/11/10 04:46:01;;;;;;;80.23;30.63;;;7.40;99.90;;;;;;4373867;28;659173;-64
2022/11/10 04:48:48;;;;;;;77.47;31.20;;;7.40;99.90;;;;;;4389282;28;659495;-64
2022/11/10 04:51:38;;;;;;;71.47;28.37;;;7.50;99.90;;;;;;4377653;28;658680;-64
2022/11/10 04:54:25;;;;;;;80.90;29.03;;;7.50;99.90;;;;;;4388602;28;658412;-65
2022/11/10 04:57:12;;;;;;;72.77;27.93;;;7.50;99.90;;;;;;4398256;28;660315;-64
2022/11/10 04:59:59;;;;;;;67.63;27.53;;;7.60;99.90;;;;;;4413813;28;658264;-64
2022/11/10 05:02:46;;;;;;;76.37;28.50;;;7.60;99.90;;;;;;4395284;28;658638;-63
2022/11/10 05:05:34;;;;;;;63.13;25.83;;;7.70;99.90;;;;;;4413687;28;659321;-64
2022/11/10 05:08:22;;;;;;;58.20;22.33;;;7.70;99.90;;;;;;4391058;28;658932;-63
2022/11/10 05:11:09;;;;;;;74.90;29.83;;;7.70;99.90;;;;;;4414013;28;658398;-63
2022/11/10 05:13:56;;;;;;;76.20;27.70;;;7.70;99.90;;;;;;4394864;28;658551;-63
2022/11/10 05:16:43;;;;;;;73.83;27.37;;;7.70;99.90;;;;;;4413815;28;659140;-63
2022/11/10 05:19:30;;;;;;;78.00;29.07;;;7.80;99.90;;;;;;4394809;28;659373;-64
2022/11/10 05:22:17;;;;;;;54.33;20.50;;;7.80;99.90;;;;;;4412349;28;660338;-63
2022/11/10 05:25:07;;;;;;;75.00;29.50;;;7.80;99.90;;;;;;4409539;28;658715;-65
2022/11/10 05:27:54;;;;;;;78.00;27.90;;;7.70;99.90;;;;;;4413461;28;658338;-63
2022/11/10 05:30:41;;;;;;;74.60;27.60;;;7.80;99.90;;;;;;4394252;28;658494;-64
2022/11/10 05:33:29;;;;;;;77.03;28.43;;;7.80;99.90;;;;;;4413691;28;658970;-63
2022/11/10 05:36:16;;;;;;;80.33;30.57;;;7.80;99.90;;;;;;4394372;28;659224;-64
2022/11/10 05:39:03;;;;;;;73.33;28.20;;;7.80;99.90;;;;;;4416691;28;658880;-63
2022/11/10 05:41:51;;;;;;;75.70;29.70;;;7.80;99.90;;;;;;4394326;28;658608;-65
2022/11/10 05:44:39;;;;;;;72.17;25.20;;;7.80;99.90;;;;;;4412522;28;659105;-63
2022/11/10 05:47:26;;;;;;;73.10;27.47;;;7.80;99.90;;;;;;4393635;28;658807;-64
2022/11/10 05:50:13;;;;;;;82.30;30.23;;;7.80;99.90;;;;;;4416514;28;659706;-64
2022/11/10 05:53:00;;;;;;;71.00;28.60;;;7.80;99.90;;;;;;4395527;28;658655;-65
2022/11/10 05:55:47;;;;;;;72.85;27.05;;;7.90;99.90;;;;;;4416173;28;659426;-63
2022/11/10 05:58:36;;;;;;;77.70;28.60;;;7.90;99.90;;;;;;4412045;28;658493;-63
2022/11/10 06:01:23;;;;;;;70.83;26.30;;;7.90;99.90;;;;;;4389474;28;659174;-63
2022/11/10 06:04:10;;;;;;;78.07;28.87;;;7.90;99.90;;;;;;4402185;28;659050;-65
2022/11/10 06:06:57;;;;;;;77.50;26.58;;;7.90;99.90;;;;;;4415900;28;659599;-63
2022/11/10 06:09:44;;;;;;;64.73;24.40;;;7.90;99.90;;;;;;4411975;28;659278;-63
2022/11/10 06:12:31;;;;;;;82.00;30.97;;;7.90;99.90;;;;;;4389313;28;658421;-63
2022/11/10 06:15:20;;;;;;;86.73;30.50;;;7.90;99.90;;;;;;4411892;28;659476;-63
2022/11/10 06:18:07;;;;;;;66.47;22.13;;;7.90;99.90;;;;;;4388816;28;659543;-63
2022/11/10 06:20:54;;;;;;;81.93;29.00;;;7.90;99.90;;;;;;4411963;28;658356;-63
2022/11/10 06:23:41;;;;;;;78.07;28.53;;;8.00;99.90;;;;;;4393120;28;659151;-63
2022/11/10 06:26:28;;;;;;;94.63;31.30;;;7.90;99.90;;;;;;4411499;28;660010;-64
2022/11/10 06:29:15;;;;;;;82.43;28.77;;;7.90;99.90;;;;;;4393130;28;658559;-65
2022/11/10 06:32:04;;;;;;;93.50;31.23;;;7.90;99.90;;;;;;4411638;28;661093;-63
2022/11/10 06:34:51;;;;;;;84.33;29.97;;;7.90;99.90;;;;;;4391976;28;658915;-64
2022/11/10 06:37:38;;;;;;;81.73;30.73;;;8.00;99.90;;;;;;4413483;28;658625;-63
2022/11/10 06:40:25;;;;;;;89.23;31.70;;;7.90;99.90;;;;;;4392485;28;658973;-65
2022/11/10 06:43:12;;;;;;;98.47;32.20;;;8.00;99.90;;;;;;4411463;28;660308;-63
2022/11/10 06:45:59;;;;;;;92.77;31.60;;;8.00;99.90;;;;;;4411879;28;658660;-63
2022/11/10 06:48:48;;;;;;;82.13;31.17;;;8.10;99.90;;;;;;4393487;28;659705;-63
2022/11/10 06:51:35;;;;;;;88.87;31.77;;;8.10;99.90;;;;;;4398486;28;658701;-65
2022/11/10 06:54:22;;;;;;;92.88;32.45;;;8.10;99.90;;;;;;4419148;28;658965;-63
2022/11/10 06:57:09;;;;;;;97.00;33.73;;;8.00;99.90;;;;;;4415020;28;658716;-63
2022/11/10 06:59:56;;;;;;;102.60;34.90;;;8.00;99.90;;;;;;4392722;28;658698;-63
2022/11/10 07:02:43;;;;;;;99.30;34.20;;;8.10;99.90;;;;;;4413813;28;660014;-63
2022/11/10 07:05:32;;;;;;;107.50;35.53;;;8.10;99.90;;;;;;4395754;28;659243;-65
2022/11/10 07:08:20;;;;;;;107.63;36.33;;;8.00;99.90;;;;;;4409929;28;659467;-65
2022/11/10 07:11:07;;;;;;;103.07;35.17;;;8.10;99.90;;;;;;4417625;28;660808;-63
2022/11/10 07:13:54;;;;;;;94.60;31.07;;;8.20;99.90;;;;;;4413469;28;659420;-63
2022/11/10 07:16:41;;;;;;;101.63;33.43;;;8.20;99.90;;;;;;4396303;28;658729;-63
2022/11/10 07:19:28;;;;;;;103.73;35.20;;;8.10;99.90;;;;;;4413675;28;659914;-63
2022/11/10 07:22:17;;;;;;;109.77;35.20;;;8.00;99.90;;;;;;4394774;28;660233;-64
2022/11/10 07:25:05;;;;;;;101.83;35.37;;;8.00;99.90;;;;;;4413420;28;659451;-63
2022/11/10 07:27:54;;;;;;;94.37;30.33;;;8.00;99.90;;;;;;4394530;28;660598;-63
2022/11/10 07:30:41;;;;;;;105.93;34.33;;;8.10;99.90;;;;;;4395828;28;659255;-63
2022/11/10 07:33:28;;;;;;;102.40;33.03;;;8.10;99.90;;;;;;4415283;28;659949;-63
2022/11/10 07:36:15;;;;;;;97.70;33.93;;;8.20;99.90;;;;;;4397784;28;660599;-65
2022/11/10 07:39:04;;;;;;;107.20;35.23;;;8.20;99.90;;;;;;4418611;28;659730;-63
2022/11/10 07:41:51;;;;;;;113.10;37.20;;;8.20;99.90;;;;;;4394073;28;659881;-64
2022/11/10 07:44:38;;;;;;;111.70;35.47;;;8.30;99.90;;;;;;4412673;28;661939;-64
2022/11/10 07:47:25;;;;;;;110.93;36.00;;;8.30;99.90;;;;;;4394017;28;659730;-64
2022/11/10 07:50:12;;;;;;;109.50;35.20;;;8.40;99.90;;;;;;4412826;28;661142;-63
2022/11/10 07:53:04;;;;;;;99.63;35.37;;;8.50;99.90;;;;;;4412836;28;659514;-63
2022/11/10 07:55:53;;;;;;;106.90;35.00;;;8.40;99.90;;;;;;4372408;28;659779;-63
2022/11/10 07:58:40;;;;;;;102.30;33.13;;;8.30;99.90;;;;;;4393762;28;659786;-63
2022/11/10 08:01:27;;;;;;;116.20;37.67;;;8.30;99.90;;;;;;4411986;28;661050;-63
2022/11/10 08:04:15;;;;;;;110.07;37.13;;;8.30;99.90;;;;;;4412404;28;659421;-64
2022/11/10 08:07:02;;;;;;;109.00;35.20;;;8.30;99.90;;;;;;4416960;28;661166;-63
2022/11/10 08:09:50;;;;;;;111.77;34.33;;;8.30;99.90;;;;;;4412552;28;659716;-63
2022/11/10 08:12:38;;;;;;;117.47;38.63;;;8.30;99.90;;;;;;4390179;28;662151;-64
2022/11/10 08:15:26;;;;;;;112.10;35.87;;;8.30;99.90;;;;;;4393960;28;659779;-64
2022/11/10 08:18:16;;;;;;;102.60;32.20;;;8.30;99.90;;;;;;4415559;28;660328;-63
2022/11/10 08:21:04;;;;;;;114.00;35.60;;;8.50;99.90;;;;;;4389644;28;661806;-63
2022/11/10 08:23:51;;;;;;;109.18;36.22;;;8.50;99.90;;;;;;4393366;28;659843;-63
2022/11/10 08:26:38;;;;;;;106.03;35.53;;;8.50;99.90;;;;;;4412438;28;661470;-63
2022/11/10 08:29:27;;;;;;;114.07;36.20;;;8.50;99.90;;;;;;4393236;28;659801;-63
2022/11/10 08:32:14;;;;;;;94.80;30.33;;;8.40;99.90;;;;;;4412273;28;660300;-63
2022/11/10 08:35:01;;;;;;;114.17;37.17;;;8.50;99.90;;;;;;4393981;28;658713;-64
2022/11/10 08:37:48;;;;;;;105.83;35.63;;;8.50;99.90;;;;;;4414382;28;660886;-62
2022/11/10 08:40:35;;;;;;;101.53;32.57;;;8.40;99.90;;;;;;4393337;28;659455;-63
2022/11/10 08:43:22;;;;;;;110.53;35.37;;;8.40;99.90;;;;;;4412262;28;661762;-62
2022/11/10 08:46:11;;;;;;;114.80;35.47;;;8.30;99.90;;;;;;4406835;28;659598;-64
2022/11/10 08:48:58;;;;;;;107.20;32.67;;;8.40;99.90;;;;;;4412454;28;659765;-63
2022/11/10 08:51:46;;;;;;;115.20;35.53;;;8.40;99.90;;;;;;4393121;28;660080;-63
2022/11/10 08:54:33;;;;;;;102.70;33.83;;;8.50;99.90;;;;;;4416463;28;659787;-63
2022/11/10 08:57:20;;;;;;;110.20;34.63;;;8.50;99.90;;;;;;4402206;28;659801;-64
2022/11/10 09:00:09;;;;;;;111.33;33.73;;;8.60;99.90;;;;;;4411117;28;660248;-62
2022/11/10 09:03:02;;;;;;;112.03;35.43;;;8.60;99.90;;;;;;4391658;28;659944;-63
2022/11/10 09:05:50;;;;;;;106.50;34.53;;;8.70;99.90;;;;;;4388787;28;660397;-63
2022/11/10 09:08:37;;;;;;;123.43;39.10;;;8.70;99.90;;;;;;4388817;28;661004;-63
2022/11/10 09:11:24;;;;;;;117.63;35.37;;;8.70;99.90;;;;;;4411165;28;660492;-63
2022/11/10 09:14:11;;;;;;;109.53;36.13;;;8.70;99.90;;;;;;4392722;28;659843;-63
2022/11/10 09:16:58;;;;;;;132.83;39.50;;;8.70;99.90;;;;;;4411415;28;661051;-63
2022/11/10 09:19:46;;;;;;;119.60;37.70;;;8.60;99.90;;;;;;4392503;28;659587;-64
2022/11/10 09:22:34;;;;;;;128.17;39.23;;;8.60;99.90;;;;;;4411477;28;660750;-63
2022/11/10 09:25:21;;;;;;;120.47;39.40;;;8.70;99.90;;;;;;4392322;28;659822;-63
2022/11/10 09:28:11;;;;;;;122.03;37.50;;;8.80;99.90;;;;;;4406886;28;660327;-63
2022/11/10 09:30:58;;;;;;;113.43;36.90;;;8.90;99.90;;;;;;4392772;28;660609;-63
2022/11/10 09:33:45;;;;;;;115.97;38.23;;;8.90;99.90;;;;;;4392352;28;659784;-63
2022/11/10 09:36:34;;;;;;;114.80;34.90;;;8.80;99.90;;;;;;4411492;28;660910;-62
2022/11/10 09:39:21;;;;;;;111.90;35.40;;;8.80;99.90;;;;;;4392605;28;659507;-63
2022/11/10 09:42:20;;;;;;;127.83;37.23;;;8.90;99.90;;;;;;4406131;28;661926;-63
2022/11/10 09:45:12;;;;;;;121.73;37.70;;;8.90;99.90;;;;;;4391929;28;660079;-63
2022/11/10 09:48:01;;;;;;;121.17;38.10;;;8.90;99.90;;;;;;4382537;28;660193;-63
2022/11/10 09:50:51;;;;;;;124.17;37.80;;;9.00;99.90;;;;;;4388287;28;660471;-62
2022/11/10 09:53:43;;;;;;;118.40;37.43;;;9.10;99.90;;;;;;4388356;28;660192;-63
2022/11/10 09:56:32;;;;;;;118.83;36.77;;;9.10;99.90;;;;;;4382632;28;659899;-65
2022/11/10 09:59:23;;;;;;;119.47;36.97;;;9.10;99.90;;;;;;4410786;28;660535;-63
2022/11/10 10:02:17;;;;;;;116.60;36.20;;;9.10;99.90;;;;;;4370166;28;660345;-64
2022/11/10 10:05:26;;;;;;;110.93;35.78;;;9.20;99.90;;;;;;4385925;28;659745;-63
2022/11/10 10:08:15;;;;;;;121.73;37.70;;;9.00;99.90;;;;;;4377189;28;660340;-63
2022/11/10 10:11:08;;;;;;;116.13;36.03;;;9.00;99.90;;;;;;4388468;28;661362;-63
2022/11/10 10:14:09;;;;;;;108.47;36.47;;;9.10;99.90;;;;;;4367218;28;660186;-64
2022/11/10 10:17:00;;;;;;;125.77;38.67;;;9.10;99.90;;;;;;4367703;28;661514;-63
2022/11/10 10:19:49;;;;;;;117.53;36.30;;;9.20;99.90;;;;;;4388281;28;661143;-64
2022/11/10 10:22:49;;;;;;;130.17;40.33;;;9.00;99.90;;;;;;4391938;28;660688;-63
2022/11/10 10:25:37;;;;;;;139.50;39.67;;;8.90;99.90;;;;;;4373031;28;660546;-63
2022/11/10 10:28:28;;;;;;;113.13;34.83;;;8.90;99.90;;;;;;4414620;28;660298;-63
2022/11/10 10:31:18;;;;;;;120.10;36.60;;;9.00;99.90;;;;;;4371953;28;660238;-63
2022/11/10 10:34:12;;;;;;;113.33;36.80;;;9.00;99.90;;;;;;4390223;28;660513;-64
2022/11/10 10:36:59;;;;;;;120.30;36.20;;;9.00;99.90;;;;;;4385943;28;660389;-63
2022/11/10 10:39:48;;;;;;;100.93;31.73;;;9.10;99.90;;;;;;4393122;28;659707;-63
2022/11/10 10:42:37;;;;;;;114.90;35.90;;;9.10;99.90;;;;;;4400450;28;660068;-64
2022/11/10 10:45:26;;;;;;;118.00;36.53;;;9.10;99.90;;;;;;4414010;28;660014;-63
2022/11/10 10:48:26;;;;;;;124.23;38.43;;;9.10;99.90;;;;;;4391342;28;660131;-62
2022/11/10 10:51:27;;;;;;;122.97;36.80;;;9.10;99.90;;;;;;4391294;28;660523;-62
2022/11/10 10:54:25;;;;;;;119.33;38.70;;;9.10;99.90;;;;;;4391017;28;659619;-64
2022/11/10 10:57:20;;;;;;;129.77;38.07;;;9.10;99.90;;;;;;4391042;28;660471;-63
2022/11/10 11:00:18;;;;;;;132.47;40.37;;;9.20;99.90;;;;;;4368069;28;660876;-63
2022/11/10 11:03:19;;;;;;;131.27;38.83;;;9.20;99.90;;;;;;4375035;28;659980;-64
2022/11/10 11:06:18;;;;;;;135.63;39.43;;;9.20;99.90;;;;;;4367804;28;660866;-63
2022/11/10 11:09:07;;;;;;;123.23;37.60;;;9.30;99.90;;;;;;4370081;28;660595;-63
2022/11/10 11:12:02;;;;;;;144.63;41.67;;;9.30;99.90;;;;;;4413368;28;660458;-63
2022/11/10 11:14:49;;;;;;;125.30;36.30;;;9.20;99.90;;;;;;4390679;28;659686;-63
2022/11/10 11:17:36;;;;;;;138.87;40.80;;;9.20;99.90;;;;;;4394821;28;659886;-63
2022/11/10 11:20:31;;;;;;;130.37;41.57;;;9.20;99.90;;;;;;4417607;28;661223;-63
2022/11/10 11:23:42;;;;;;;125.33;39.60;;;9.30;99.90;;;;;;4390696;28;660060;-63
2022/11/10 11:26:35;;;;;;;127.13;37.33;;;9.30;99.90;;;;;;4390560;28;659821;-63
2022/11/10 11:29:33;;;;;;;122.13;39.77;;;9.40;99.90;;;;;;4371371;28;660216;-63
2022/11/10 11:32:29;;;;;;;119.80;38.87;;;9.40;99.90;;;;;;4376564;28;659962;-64
2022/11/10 11:35:19;;;;;;;132.27;38.50;;;9.50;99.90;;;;;;4367478;28;660598;-63
2022/11/10 11:38:11;;;;;;;125.53;38.93;;;9.40;99.90;;;;;;4394405;28;660925;-64
2022/11/10 11:41:09;;;;;;;110.60;35.03;;;9.40;99.90;;;;;;4390251;28;661172;-63
2022/11/10 11:44:25;;;;;;;117.40;36.43;;;9.40;99.90;;;;;;4367684;28;660376;-63
2022/11/10 11:47:20;;;;;;;111.00;36.00;;;9.40;99.90;;;;;;4362567;28;661644;-63
2022/11/10 11:50:16;;;;;;;116.43;37.30;;;9.40;99.90;;;;;;4384539;28;660789;-63
2022/11/10 11:53:08;;;;;;;113.57;36.67;;;9.50;99.90;;;;;;4390267;28;659801;-63
2022/11/10 11:56:02;;;;;;;117.67;38.03;;;9.50;99.90;;;;;;4378213;28;659863;-64
2022/11/10 11:58:56;;;;;;;112.40;37.20;;;9.70;99.90;;;;;;4387091;28;660792;-65
2022/11/10 12:01:51;;;;;;;120.73;36.80;;;9.80;99.90;;;;;;4389856;28;659839;-63
2022/11/10 12:04:45;;;;;;;113.40;36.63;;;9.90;99.90;;;;;;4389955;28;660080;-64
2022/11/10 12:07:41;;;;;;;105.03;33.80;;;10.00;99.90;;;;;;4366865;28;660921;-63
2022/11/10 12:10:35;;;;;;;113.87;36.50;;;10.20;99.90;;;;;;4387188;28;661348;-63
2022/11/10 12:13:30;;;;;;;105.20;35.13;;;10.20;99.90;;;;;;4388002;28;661343;-63
2022/11/10 12:16:19;;;;;;;101.53;34.28;;;10.20;99.90;;;;;;4384843;28;661212;-63
2022/11/10 12:19:12;;;;;;;95.20;30.93;;;10.30;99.90;;;;;;4392420;28;660624;-63
2022/11/10 12:22:01;;;;;;;87.90;30.80;;;10.50;99.90;;;;;;4389765;28;660520;-63
2022/11/10 12:24:55;;;;;;;101.63;35.07;;;10.30;99.90;;;;;;4393351;28;660566;-64
2022/11/10 12:27:44;;;;;;;99.70;34.23;;;10.10;99.90;;;;;;4365416;28;661894;-63
2022/11/10 12:30:33;;;;;;;90.07;32.93;;;10.00;99.90;;;;;;4392712;28;660465;-63
2022/11/10 12:33:26;;;;;;;97.90;35.03;;;10.20;99.90;;;;;;4406769;28;659577;-64
2022/11/10 12:36:14;;;;;;;70.93;25.75;;;10.30;99.90;;;;;;4389415;28;660915;-62
2022/11/10 12:39:03;;;;;;;91.00;32.73;;;10.40;99.90;;;;;;4393530;28;659933;-63
2022/11/10 12:41:53;;;;;;;85.57;31.60;;;10.40;99.90;;;;;;4393317;28;659654;-64
2022/11/10 12:44:54;;;;;;;94.93;33.73;;;10.40;99.90;;;;;;4393202;28;659736;-65
2022/11/10 12:47:43;;;;;;;86.13;33.93;;;10.40;99.90;;;;;;4392683;28;660294;-63
2022/11/10 12:50:41;;;;;;;81.20;33.17;;;10.30;99.90;;;;;;4393120;28;659554;-63
2022/11/10 12:53:29;;;;;;;86.10;32.80;;;10.40;99.90;;;;;;4389202;28;660408;-63
2022/11/10 12:56:17;;;;;;;86.23;34.00;;;10.40;99.90;;;;;;4393060;28;659939;-63
2022/11/10 12:59:20;;;;;;;92.70;34.27;;;10.50;99.90;;;;;;4404885;28;659719;-65
2022/11/10 13:02:21;;;;;;;85.93;33.80;;;10.80;99.90;;;;;;4361949;28;661032;-64
2022/11/10 13:05:26;;;;;;;71.40;28.67;;;12.10;99.90;;;;;;4389092;28;659245;-63
2022/11/10 13:08:20;;;;;;;66.47;27.53;;;13.40;99.90;;;;;;4388001;28;660319;-64
2022/11/10 13:11:20;;;;;;;47.57;22.93;;;14.90;99.90;;;;;;4370067;28;660673;-64
2022/11/10 13:14:20;;;;;;;47.93;22.50;;;16.50;99.90;;;;;;4366135;28;661789;-63
2022/11/10 13:17:08;;;;;;;44.03;22.40;;;16.60;99.90;;;;;;4365961;28;660850;-64
2022/11/10 13:19:55;;;;;;;48.53;22.33;;;17.80;99.90;;;;;;4396715;28;660156;-65
2022/11/10 13:22:44;;;;;;;43.93;20.27;;;18.60;99.90;;;;;;4411292;28;661118;-63
2022/11/10 13:25:52;;;;;;;41.45;21.00;;;18.80;99.90;;;;;;4389019;28;659575;-64
2022/11/10 13:28:56;;;;;;;39.80;19.23;;;18.00;99.90;;;;;;4388583;28;660633;-64
2022/11/10 13:31:51;;;;;;;42.47;20.30;;;18.10;99.90;;;;;;4388415;28;660519;-64
2022/11/10 13:34:39;;;;;;;37.67;19.23;;;18.80;99.90;;;;;;4388395;28;660035;-64
2022/11/10 13:37:49;;;;;;;38.63;18.90;;;17.00;99.90;;;;;;4391725;28;659449;-64
2022/11/10 13:40:38;;;;;;;32.07;17.60;;;15.40;99.90;;;;;;4392265;28;660008;-64
2022/11/10 13:43:26;;;;;;;38.53;17.40;;;14.90;99.90;;;;;;4396905;28;659672;-65
2022/11/10 13:46:13;;;;;;;34.23;17.83;;;15.10;99.90;;;;;;4411521;28;660482;-63
2022/11/10 13:49:24;;;;;;;36.13;19.00;;;14.40;99.90;;;;;;4392132;28;659505;-65
2022/11/10 13:52:14;;;;;;;35.47;18.37;;;13.90;99.90;;;;;;4365566;28;661418;-64
2022/11/10 13:55:12;;;;;;;38.87;16.53;;;13.40;99.90;;;;;;4388503;28;661071;-63
2022/11/10 13:58:00;;;;;;;40.43;19.53;;;13.10;99.90;;;;;;4382129;28;660663;-63
2022/11/10 14:00:48;;;;;;;41.70;20.50;;;12.30;99.90;;;;;;4392265;28;660149;-63
2022/11/10 14:03:59;;;;;;;39.87;19.33;;;12.20;99.90;;;;;;4392261;28;659417;-64
2022/11/10 14:06:47;;;;;;;39.10;18.53;;;12.00;99.90;;;;;;4365236;28;660553;-63
2022/11/10 14:09:38;;;;;;;37.57;18.30;;;11.80;99.90;;;;;;4410621;28;660496;-63
2022/11/10 14:12:29;;;;;;;39.40;19.53;;;11.60;99.90;;;;;;4371713;28;660323;-64
2022/11/10 14:15:17;;;;;;;44.07;20.57;;;11.40;99.90;;;;;;4392138;28;660805;-63
2022/11/10 14:18:14;;;;;;;47.37;20.93;;;11.40;99.90;;;;;;4408144;28;659767;-65
2022/11/10 14:21:01;;;;;;;42.17;20.20;;;11.20;99.90;;;;;;4365171;28;660981;-63
2022/11/10 14:23:50;;;;;;;46.93;21.23;;;11.20;99.90;;;;;;4410484;28;661431;-62
2022/11/10 14:26:39;;;;;;;54.67;24.42;;;11.30;99.90;;;;;;4391955;28;660422;-63
2022/11/10 14:29:32;;;;;;;46.93;23.30;;;11.10;99.90;;;;;;4390468;28;660470;-63